createdAt,value
2018-06-19T00:00:36.507Z,77.5
2018-06-19T00:01:36.511Z,77.59
2018-06-19T00:02:36.549Z,77.59
2018-06-19T00:03:36.531Z,77.59
2018-06-19T00:04:36.535Z,77.59
2018-06-19T00:05:36.546Z,77.4
2018-06-19T00:06:36.515Z,77.4
2018-06-19T00:07:36.531Z,77.5
2018-06-19T00:08:36.581Z,77.5
2018-06-19T00:09:36.552Z,77.5
2018-06-19T00:10:36.522Z,77.5
2018-06-19T00:11:36.575Z,77.69
2018-06-19T00:12:36.534Z,77.5
2018-06-19T00:13:36.521Z,77.5
2018-06-19T00:14:36.548Z,77.5
2018-06-19T00:15:36.539Z,77.5
2018-06-19T00:16:36.532Z,77.5
2018-06-19T00:17:36.570Z,77.69
2018-06-19T00:18:36.520Z,77.5
2018-06-19T00:19:36.580Z,77.5
2018-06-19T00:20:36.558Z,77.78
2018-06-19T00:21:36.569Z,77.5
2018-06-19T00:22:36.580Z,77.5
2018-06-19T00:23:36.607Z,77.5
2018-06-19T00:24:36.594Z,77.5
2018-06-19T00:25:36.546Z,77.4
2018-06-19T00:26:36.627Z,77.59
2018-06-19T00:31:05.480Z,77.3
2018-06-19T00:32:05.403Z,77.4
2018-06-19T00:33:06.037Z,77.4
2018-06-19T00:34:05.377Z,76.91
2018-06-19T00:35:05.456Z,77.01
2018-06-19T00:36:05.408Z,77.5
2018-06-19T00:37:05.440Z,77.3
2018-06-19T00:38:05.448Z,77.3
2018-06-19T00:39:05.432Z,77.2
2018-06-19T00:40:05.464Z,77.3
2018-06-19T00:41:05.461Z,77.4
2018-06-19T00:42:05.403Z,77.3
2018-06-19T00:43:05.462Z,77.2
2018-06-19T00:44:05.418Z,77.3
2018-06-19T00:45:05.470Z,77.4
2018-06-19T00:46:05.428Z,77.59
2018-06-19T00:47:05.412Z,77.3
2018-06-19T00:48:05.463Z,77.4
2018-06-19T00:49:05.448Z,77.5
2018-06-19T00:50:05.444Z,77.59
2018-06-19T00:51:05.436Z,77.5
2018-06-19T00:52:05.457Z,77.11
2018-06-19T00:53:05.438Z,77.5
2018-06-19T00:54:05.447Z,77.3
2018-06-19T00:55:05.454Z,77.3
2018-06-19T00:56:05.461Z,77.01
2018-06-19T00:57:05.449Z,77.11
2018-06-19T00:58:05.451Z,77.01
2018-06-19T00:59:05.463Z,77.11
2018-06-19T01:00:05.512Z,77.2
2018-06-19T01:01:05.465Z,77.3
2018-06-19T01:02:05.506Z,77.5
2018-06-19T01:03:05.479Z,77.5
2018-06-19T01:04:05.493Z,76.82
2018-06-19T01:05:06.030Z,77.01
2018-06-19T01:06:05.474Z,76.91
2018-06-19T01:07:05.457Z,77.01
2018-06-19T01:08:05.518Z,76.82
2018-06-19T01:09:05.468Z,77.2
2018-06-19T01:10:05.555Z,76.82
2018-06-19T01:11:05.765Z,76.82
2018-06-19T01:12:05.472Z,77.01
2018-06-19T01:13:05.480Z,77.01
2018-06-19T01:14:05.466Z,77.01
2018-06-19T01:15:05.513Z,77.01
2018-06-19T01:16:05.490Z,77.01
2018-06-19T01:17:05.501Z,76.91
2018-06-19T01:18:05.575Z,76.43
2018-06-19T01:19:05.506Z,76.72
2018-06-19T01:20:05.572Z,77.11
2018-06-19T01:21:06.010Z,77.11
2018-06-19T01:22:05.531Z,77.01
2018-06-19T01:23:05.522Z,77.01
2018-06-19T01:24:05.524Z,76.91
2018-06-19T01:28:35.217Z,76.82
2018-06-19T01:29:35.148Z,77.4
2018-06-19T01:30:35.180Z,77.4
2018-06-19T01:31:35.108Z,77.2
2018-06-19T01:32:35.146Z,77.59
2018-06-19T01:33:35.128Z,77.4
2018-06-19T01:34:35.188Z,77.4
2018-06-19T01:35:35.216Z,77.3
2018-06-19T01:36:35.140Z,77.3
2018-06-19T01:37:35.147Z,77.3
2018-06-19T01:38:35.159Z,77.3
2018-06-19T01:39:35.154Z,77.5
2018-06-19T01:40:35.170Z,77.11
2018-06-19T01:41:35.150Z,77.4
2018-06-19T01:42:35.158Z,77.4
2018-06-19T01:43:35.202Z,77.11
2018-06-19T01:44:35.170Z,77.5
2018-06-19T01:45:35.153Z,77.01
2018-06-19T01:46:35.204Z,77.11
2018-06-19T01:47:35.207Z,77.01
2018-06-19T01:48:35.185Z,76.91
2018-06-19T01:49:35.207Z,76.91
2018-06-19T01:50:35.200Z,77.11
2018-06-19T01:51:35.244Z,77.11
2018-06-19T01:52:35.175Z,77.11
2018-06-19T01:53:35.178Z,77.4
2018-06-19T01:54:35.186Z,77.4
2018-06-19T01:55:35.195Z,77.78
2018-06-19T01:56:35.169Z,77.3
2018-06-19T01:57:35.257Z,77.3
2018-06-19T01:58:35.206Z,77.3
2018-06-19T01:59:35.206Z,77.3
2018-06-19T02:00:35.188Z,77.4
2018-06-19T02:01:35.207Z,77.5
2018-06-19T02:02:35.201Z,77.4
2018-06-19T02:03:35.219Z,77.4
2018-06-19T02:04:35.197Z,77.5
2018-06-19T02:05:35.190Z,77.4
2018-06-19T02:06:35.217Z,77.4
2018-06-19T02:07:35.188Z,77.3
2018-06-19T02:08:35.191Z,77.01
2018-06-19T02:09:35.245Z,77.3
2018-06-19T02:10:35.193Z,76.72
2018-06-19T02:11:35.239Z,76.72
2018-06-19T02:12:35.220Z,77.01
2018-06-19T02:13:35.220Z,77.01
2018-06-19T02:14:35.260Z,76.91
2018-06-19T02:15:35.248Z,76.72
2018-06-19T02:16:35.271Z,76.62
2018-06-19T02:17:35.195Z,77.01
2018-06-19T02:18:35.244Z,77.11
2018-06-19T02:19:35.208Z,77.4
2018-06-19T02:20:35.238Z,77.4
2018-06-19T02:21:35.226Z,76.82
2018-06-19T02:22:35.202Z,76.82
2018-06-19T02:23:35.211Z,77.59
2018-06-19T02:24:35.240Z,77.5
2018-06-19T02:25:35.221Z,77.5
2018-06-19T02:26:35.212Z,77.59
2018-06-19T02:27:35.214Z,77.59
2018-06-19T02:28:35.279Z,77.5
2018-06-19T02:29:35.301Z,77.69
2018-06-19T02:30:35.316Z,77.59
2018-06-19T02:31:35.264Z,77.3
2018-06-19T02:32:35.238Z,77.3
2018-06-19T02:33:35.254Z,77.4
2018-06-19T02:34:35.255Z,77.4
2018-06-19T02:35:35.237Z,77.5
2018-06-19T02:36:35.265Z,77.5
2018-06-19T02:41:04.324Z,77.5
2018-06-19T02:42:04.308Z,77.5
2018-06-19T02:43:04.310Z,77.4
2018-06-19T02:44:04.293Z,77.59
2018-06-19T02:45:04.352Z,77.5
2018-06-19T02:46:04.337Z,77.59
2018-06-19T02:47:04.350Z,77.3
2018-06-19T02:48:04.322Z,77.59
2018-06-19T02:49:04.328Z,77.3
2018-06-19T02:50:04.314Z,77.3
2018-06-19T02:51:04.341Z,77.4
2018-06-19T02:52:04.295Z,77.59
2018-06-19T02:53:04.308Z,77.5
2018-06-19T02:54:04.336Z,77.4
2018-06-19T02:55:04.373Z,77.3
2018-06-19T02:56:04.346Z,77.4
2018-06-19T02:57:04.352Z,77.59
2018-06-19T02:58:04.372Z,77.5
2018-06-19T02:59:04.397Z,77.3
2018-06-19T03:00:04.399Z,77.2
2018-06-19T03:01:04.388Z,77.2
2018-06-19T03:02:04.338Z,77.4
2018-06-19T03:03:04.347Z,77.3
2018-06-19T03:04:04.348Z,77.3
2018-06-19T03:05:04.364Z,77.3
2018-06-19T03:06:05.162Z,77.3
2018-06-19T03:07:04.370Z,77.3
2018-06-19T03:08:04.380Z,77.2
2018-06-19T03:09:04.384Z,77.4
2018-06-19T03:10:04.348Z,77.2
2018-06-19T03:11:04.403Z,77.3
2018-06-19T03:12:04.399Z,77.11
2018-06-19T03:13:04.387Z,77.5
2018-06-19T03:14:04.360Z,77.69
2018-06-19T03:15:04.348Z,77.01
2018-06-19T03:16:05.000Z,77.01
2018-06-19T03:17:04.382Z,77.01
2018-06-19T03:18:04.419Z,77.01
2018-06-19T03:19:04.448Z,76.62
2018-06-19T03:20:04.385Z,77.01
2018-06-19T03:21:04.363Z,76.82
2018-06-19T03:22:04.374Z,77.01
2018-06-19T03:23:04.371Z,77.01
2018-06-19T03:24:04.388Z,76.82
2018-06-19T03:25:04.358Z,77.01
2018-06-19T03:26:04.419Z,76.72
2018-06-19T03:27:05.927Z,77.3
2018-06-19T03:28:04.408Z,77.3
2018-06-19T03:29:04.414Z,77.5
2018-06-19T03:30:04.427Z,77.5
2018-06-19T03:31:04.432Z,77.5
2018-06-19T03:32:04.420Z,77.4
2018-06-19T03:33:04.413Z,77.69
2018-06-19T03:34:04.425Z,77.88
2018-06-19T03:35:04.407Z,77.98
2018-06-19T03:36:05.020Z,77.88
2018-06-19T03:37:04.446Z,77.88
2018-06-19T03:38:04.430Z,77.88
2018-06-19T03:39:04.422Z,77.98
2018-06-19T03:40:04.432Z,77.98
2018-06-19T03:41:04.445Z,77.69
2018-06-19T03:42:04.447Z,77.88
2018-06-19T03:43:04.423Z,77.69
2018-06-19T03:44:04.437Z,77.59
2018-06-19T03:45:04.461Z,77.88
2018-06-19T03:46:04.451Z,77.88
2018-06-19T03:47:04.424Z,77.69
2018-06-19T03:48:04.439Z,77.88
2018-06-19T03:49:04.421Z,77.5
2018-06-19T03:50:04.480Z,77.2
2018-06-19T03:51:04.461Z,77.3
2018-06-19T03:52:04.507Z,77.59
2018-06-19T03:53:04.487Z,77.59
2018-06-19T03:54:04.482Z,76.82
2018-06-19T03:55:04.427Z,76.72
2018-06-19T03:56:04.517Z,77.59
2018-06-19T03:57:04.445Z,77.98
2018-06-19T03:58:04.473Z,77.4
2018-06-19T03:59:04.455Z,77.4
2018-06-19T04:00:04.540Z,77.4
2018-06-19T04:01:04.450Z,77.3
2018-06-19T04:02:04.458Z,77.11
2018-06-19T04:03:04.508Z,77.01
2018-06-19T04:04:04.441Z,77.5
2018-06-19T04:05:04.488Z,77.3
2018-06-19T04:06:04.471Z,77.88
2018-06-19T04:07:04.504Z,77.88
2018-06-19T04:08:04.495Z,77.88
2018-06-19T04:09:04.486Z,77.5
2018-06-19T04:10:04.497Z,77.4
2018-06-19T04:12:23.142Z,77.88
2018-06-19T04:13:23.143Z,77.88
2018-06-19T04:14:23.130Z,77.69
2018-06-19T04:15:23.118Z,77.98
2018-06-19T04:16:23.205Z,77.88
2018-06-19T04:17:23.101Z,77.98
2018-06-19T04:18:23.133Z,77.78
2018-06-19T04:19:23.129Z,77.69
2018-06-19T04:20:23.131Z,78.27
2018-06-19T04:21:23.181Z,77.88
2018-06-19T04:22:23.197Z,77.98
2018-06-19T04:23:23.163Z,78.17
2018-06-19T04:24:23.189Z,78.36
2018-06-19T04:25:23.158Z,78.08
2018-06-19T04:26:23.215Z,78.46
2018-06-19T04:27:23.145Z,78.36
2018-06-19T04:28:23.534Z,78.46
2018-06-19T04:29:23.135Z,78.36
2018-06-19T04:30:23.189Z,78.08
2018-06-19T04:31:23.164Z,77.98
2018-06-19T04:32:23.163Z,78.27
2018-06-19T04:33:23.191Z,77.98
2018-06-19T04:34:23.211Z,78.17
2018-06-19T04:35:23.170Z,78.17
2018-06-19T04:36:23.200Z,77.88
2018-06-19T04:37:23.243Z,77.88
2018-06-19T04:38:23.170Z,77.59
2018-06-19T04:39:23.152Z,77.53
2018-06-19T04:40:23.149Z,77.59
2018-06-19T04:41:23.161Z,77.5
2018-06-19T04:42:23.195Z,76.91
2018-06-19T04:43:23.178Z,76.72
2018-06-19T04:44:23.210Z,77.01
2018-06-19T04:45:23.210Z,77.01
2018-06-19T04:46:23.195Z,76.72
2018-06-19T04:47:23.181Z,76.53
2018-06-19T04:48:23.177Z,76.14
2018-06-19T04:49:23.180Z,76.33
2018-06-19T04:50:23.192Z,75.85
2018-06-19T04:51:23.229Z,75.95
2018-06-19T04:52:23.251Z,75.95
2018-06-19T04:53:23.208Z,75.95
2018-06-19T04:54:23.202Z,76.33
2018-06-19T04:55:23.200Z,75.85
2018-06-19T04:56:23.173Z,75.56
2018-06-19T04:57:23.189Z,76.14
2018-06-19T04:58:24.400Z,76.62
2018-06-19T04:59:23.211Z,76.91
2018-06-19T05:00:23.269Z,76.62
2018-06-19T05:01:23.208Z,76.62
2018-06-19T05:02:23.190Z,76.72
2018-06-19T05:03:23.248Z,76.33
2018-06-19T05:04:23.232Z,76.53
2018-06-19T05:05:23.193Z,76.62
2018-06-19T05:06:23.262Z,75.95
2018-06-19T05:07:23.245Z,75.85
2018-06-19T05:08:23.210Z,76.14
2018-06-19T05:09:23.190Z,76.43
2018-06-19T05:10:23.243Z,75.95
2018-06-19T05:11:23.196Z,75.46
2018-06-19T05:12:23.211Z,76.33
2018-06-19T05:13:23.251Z,75.56
2018-06-19T05:14:23.248Z,75.75
2018-06-19T05:15:23.210Z,76.14
2018-06-19T05:16:23.227Z,75.75
2018-06-19T05:17:23.244Z,75.75
2018-06-19T05:18:23.225Z,75.75
2018-06-19T05:19:23.230Z,75.75
2018-06-19T05:20:23.252Z,75.85
2018-06-19T05:21:23.234Z,75.46
2018-06-19T05:22:23.251Z,75.37
2018-06-19T05:23:23.230Z,75.37
2018-06-19T05:24:23.208Z,75.75
2018-06-19T05:25:23.285Z,75.46
2018-06-19T05:26:23.268Z,75.56
2018-06-19T05:27:23.309Z,75.07
2018-06-19T05:28:23.240Z,76.14
2018-06-19T05:29:23.268Z,75.85
2018-06-19T05:30:23.301Z,75.46
2018-06-19T05:31:23.305Z,75.75
2018-06-19T05:32:23.272Z,75.27
2018-06-19T05:33:23.248Z,75.46
2018-06-19T05:34:23.249Z,75.85
2018-06-19T05:35:23.264Z,75.37
2018-06-19T05:36:23.258Z,75.37
2018-06-19T05:37:23.263Z,75.27
2018-06-19T05:38:23.295Z,75.46
2018-06-19T05:39:23.302Z,75.46
2018-06-19T05:40:23.280Z,75.37
2018-06-19T05:41:23.300Z,75.37
2018-06-19T05:42:23.306Z,75.37
2018-06-19T05:43:23.285Z,75.27
2018-06-19T05:44:23.237Z,75.17
2018-06-19T05:45:23.304Z,75.17
2018-06-19T05:46:23.532Z,75.37
2018-06-19T05:47:23.301Z,75.56
2018-06-19T05:48:23.289Z,75.27
2018-06-19T05:49:23.271Z,75.07
2018-06-19T05:50:23.319Z,75.27
2018-06-19T05:51:23.286Z,75.37
2018-06-19T05:52:23.293Z,75.17
2018-06-19T05:53:23.300Z,75.27
2018-06-19T05:54:23.323Z,75.17
2018-06-19T05:55:23.281Z,75.37
2018-06-19T05:56:23.315Z,75.17
2018-06-19T05:57:23.296Z,75.17
2018-06-19T05:58:23.324Z,75.17
2018-06-19T05:59:23.290Z,75.37
2018-06-19T06:00:23.324Z,75.17
2018-06-19T06:01:23.330Z,75.17
2018-06-19T06:02:23.307Z,75.17
2018-06-19T06:03:23.335Z,75.37
2018-06-19T06:04:23.294Z,75.27
2018-06-19T06:05:23.323Z,75.17
2018-06-19T06:06:23.335Z,75.27
2018-06-19T06:07:23.314Z,75.17
2018-06-19T06:08:23.328Z,75.37
2018-06-19T06:09:23.325Z,75.07
2018-06-19T06:10:23.327Z,75.56
2018-06-19T06:11:23.340Z,75.07
2018-06-19T06:12:23.324Z,75.07
2018-06-19T06:13:23.318Z,74.98
2018-06-19T06:14:23.334Z,75.07
2018-06-19T06:15:23.356Z,75.65
2018-06-19T06:16:23.429Z,75.27
2018-06-19T06:17:23.359Z,75.65
2018-06-19T06:18:23.360Z,75.46
2018-06-19T06:19:23.341Z,75.46
2018-06-19T06:20:23.352Z,75.46
2018-06-19T06:21:23.355Z,75.95
2018-06-19T06:22:23.347Z,75.65
2018-06-19T06:23:23.354Z,75.75
2018-06-19T06:24:23.440Z,75.65
2018-06-19T06:25:23.378Z,75.81
2018-06-19T06:26:23.352Z,75.71
2018-06-19T06:27:23.381Z,75.52
2018-06-19T06:28:23.365Z,75.33
2018-06-19T06:29:23.357Z,76.01
2018-06-19T06:30:23.381Z,76.14
2018-06-19T06:31:23.472Z,75.81
2018-06-19T06:32:23.363Z,75.81
2018-06-19T06:33:23.354Z,75.91
2018-06-19T06:34:23.389Z,76.04
2018-06-19T06:35:23.373Z,75.81
2018-06-19T06:36:23.337Z,76.04
2018-06-19T06:37:23.398Z,76.01
2018-06-19T06:38:23.406Z,75.71
2018-06-19T06:39:23.371Z,76.01
2018-06-19T06:40:23.380Z,76.04
2018-06-19T06:41:23.399Z,75.75
2018-06-19T06:42:23.388Z,75.85
2018-06-19T06:43:23.395Z,75.71
2018-06-19T06:44:23.393Z,75.56
2018-06-19T06:45:23.371Z,75.75
2018-06-19T06:46:23.401Z,75.75
2018-06-19T06:47:23.385Z,75.46
2018-06-19T06:48:23.422Z,75.91
2018-06-19T06:49:23.403Z,75.91
2018-06-19T06:50:23.518Z,76.39
2018-06-19T06:51:23.417Z,76.33
2018-06-19T06:52:23.400Z,76.14
2018-06-19T06:53:23.501Z,76.29
2018-06-19T06:54:23.405Z,76.39
2018-06-19T06:55:23.477Z,76.29
2018-06-19T06:56:23.429Z,76.29
2018-06-19T06:57:23.463Z,76.2
2018-06-19T06:58:23.422Z,76.01
2018-06-19T06:59:23.430Z,75.81
2018-06-19T07:00:23.393Z,76.24
2018-06-19T07:01:23.382Z,76.29
2018-06-19T07:02:23.420Z,75.85
2018-06-19T07:03:23.445Z,76.33
2018-06-19T07:04:23.426Z,76.1
2018-06-19T07:05:23.432Z,76.33
2018-06-19T07:06:23.460Z,76.33
2018-06-19T07:07:23.415Z,76.1
2018-06-19T07:08:23.433Z,76.29
2018-06-19T07:09:23.451Z,76.59
2018-06-19T07:10:23.433Z,76.39
2018-06-19T07:11:23.438Z,76.82
2018-06-19T07:12:23.450Z,76.53
2018-06-19T07:13:23.465Z,76.14
2018-06-19T07:14:23.411Z,76.14
2018-06-19T07:15:23.444Z,76.2
2018-06-19T07:16:23.459Z,76.1
2018-06-19T07:17:23.454Z,76.49
2018-06-19T07:18:23.434Z,76.91
2018-06-19T07:19:23.471Z,76.78
2018-06-19T07:20:23.451Z,76.62
2018-06-19T07:21:23.428Z,76.78
2018-06-19T07:22:23.600Z,76.78
2018-06-19T07:23:23.466Z,76.78
2018-06-19T07:24:23.456Z,76.39
2018-06-19T07:25:23.467Z,76.78
2018-06-19T07:26:23.491Z,76.68
2018-06-19T07:27:23.479Z,76.53
2018-06-19T07:28:23.457Z,76.49
2018-06-19T07:29:23.521Z,76.78
2018-06-19T07:30:23.462Z,76.68
2018-06-19T07:31:23.493Z,76.68
2018-06-19T07:32:23.455Z,76.59
2018-06-19T07:33:23.457Z,76.39
2018-06-19T07:34:23.491Z,76.78
2018-06-19T07:35:23.508Z,76.78
2018-06-19T07:36:23.481Z,76.59
2018-06-19T07:37:23.489Z,76.68
2018-06-19T07:38:23.551Z,76.68
2018-06-19T07:39:23.442Z,76.59
2018-06-19T07:40:23.503Z,76.49
2018-06-19T07:41:23.483Z,76.87
2018-06-19T07:42:23.476Z,76.29
2018-06-19T07:43:23.494Z,76.29
2018-06-19T07:44:23.501Z,76.29
2018-06-19T07:45:23.484Z,76.29
2018-06-19T07:46:23.493Z,76.29
2018-06-19T07:47:23.534Z,76.59
2018-06-19T07:48:23.497Z,76.2
2018-06-19T07:49:23.534Z,76.29
2018-06-19T07:50:23.469Z,76.49
2018-06-19T07:51:23.499Z,76.2
2018-06-19T07:52:23.554Z,76.59
2018-06-19T07:53:23.534Z,76.1
2018-06-19T07:54:23.528Z,76.39
2018-06-19T07:55:23.547Z,76.2
2018-06-19T07:56:23.506Z,76.68
2018-06-19T07:57:23.556Z,76.78
2018-06-19T07:58:23.544Z,76.29
2018-06-19T07:59:23.496Z,76.49
2018-06-19T08:00:23.516Z,76.59
2018-06-19T08:01:23.527Z,76.49
2018-06-19T08:02:23.503Z,76.68
2018-06-19T08:03:23.495Z,76.2
2018-06-19T08:04:23.535Z,76.1
2018-06-19T08:05:23.508Z,76.29
2018-06-19T08:06:23.514Z,76.29
2018-06-19T08:07:23.525Z,76.29
2018-06-19T08:08:23.528Z,76.1
2018-06-19T08:09:23.540Z,75.81
2018-06-19T08:10:23.518Z,76.39
2018-06-19T08:11:23.525Z,75.91
2018-06-19T08:12:23.509Z,75.91
2018-06-19T08:13:24.345Z,76.01
2018-06-19T08:14:23.525Z,76.39
2018-06-19T08:15:23.529Z,75.81
2018-06-19T08:16:23.558Z,76.2
2018-06-19T08:17:23.541Z,76.49
2018-06-19T08:18:23.544Z,76.2
2018-06-19T08:19:23.555Z,76.14
2018-06-19T08:20:23.584Z,76.01
2018-06-19T08:21:23.557Z,76.49
2018-06-19T08:22:23.548Z,75.71
2018-06-19T08:23:23.542Z,75.71
2018-06-19T08:25:42.014Z,75.71
2018-06-19T08:26:41.989Z,75.71
2018-06-19T08:27:41.984Z,75.71
2018-06-19T08:28:42.050Z,76.01
2018-06-19T08:29:42.079Z,75.81
2018-06-19T08:30:42.016Z,75.71
2018-06-19T08:31:41.997Z,75.81
2018-06-19T08:32:41.994Z,75.71
2018-06-19T08:33:42.027Z,75.81
2018-06-19T08:34:42.083Z,75.71
2018-06-19T08:35:42.044Z,75.91
2018-06-19T08:36:42.021Z,75.62
2018-06-19T08:37:42.118Z,75.95
2018-06-19T08:38:42.058Z,75.81
2018-06-19T08:39:42.095Z,76.01
2018-06-19T08:40:42.056Z,75.85
2018-06-19T08:41:42.063Z,75.71
2018-06-19T08:42:42.073Z,75.81
2018-06-19T08:43:42.011Z,75.91
2018-06-19T08:44:42.050Z,75.91
2018-06-19T08:45:42.079Z,75.65
2018-06-19T08:46:42.013Z,75.71
2018-06-19T08:47:42.076Z,75.75
2018-06-19T08:48:42.200Z,75.71
2018-06-19T08:49:42.032Z,75.81
2018-06-19T08:50:42.619Z,75.52
2018-06-19T08:51:42.018Z,75.43
2018-06-19T08:52:42.142Z,75.62
2018-06-19T08:53:42.038Z,75.56
2018-06-19T08:54:42.037Z,75.37
2018-06-19T08:55:42.050Z,75.81
2018-06-19T08:56:42.042Z,75.75
2018-06-19T08:57:42.077Z,75.65
2018-06-19T08:58:42.133Z,75.62
2018-06-19T08:59:42.038Z,75.91
2018-06-19T09:00:42.077Z,75.85
2018-06-19T09:01:42.052Z,75.62
2018-06-19T09:02:42.042Z,75.71
2018-06-19T09:03:42.038Z,75.71
2018-06-19T09:04:42.047Z,75.81
2018-06-19T09:05:42.041Z,75.91
2018-06-19T09:06:42.044Z,75.65
2018-06-19T09:07:42.150Z,75.62
2018-06-19T09:08:42.762Z,75.85
2018-06-19T09:09:42.080Z,75.65
2018-06-19T09:10:42.093Z,75.46
2018-06-19T09:11:42.094Z,75.85
2018-06-19T09:12:42.108Z,75.91
2018-06-19T09:13:42.150Z,75.71
2018-06-19T09:14:42.073Z,75.46
2018-06-19T09:15:42.097Z,75.56
2018-06-19T09:16:42.072Z,75.27
2018-06-19T09:17:42.079Z,75.46
2018-06-19T09:18:42.119Z,75.56
2018-06-19T09:19:42.089Z,75.81
2018-06-19T09:20:42.716Z,75.23
2018-06-19T09:21:42.125Z,75.33
2018-06-19T09:22:42.090Z,75.46
2018-06-19T09:23:42.119Z,75.43
2018-06-19T09:24:42.118Z,75.62
2018-06-19T09:25:42.096Z,75.37
2018-06-19T09:26:42.093Z,75.27
2018-06-19T09:27:42.096Z,75.27
2018-06-19T09:28:42.918Z,75.46
2018-06-19T09:29:42.107Z,75.43
2018-06-19T09:30:42.129Z,75.46
2018-06-19T09:31:42.229Z,75.13
2018-06-19T09:32:42.100Z,75.43
2018-06-19T09:33:42.136Z,75.27
2018-06-19T09:34:42.140Z,75.13
2018-06-19T09:35:42.145Z,75.13
2018-06-19T09:36:42.918Z,75.17
2018-06-19T09:37:42.111Z,75.27
2018-06-19T09:38:42.111Z,75.46
2018-06-19T09:39:42.171Z,75.43
2018-06-19T09:40:42.130Z,75.13
2018-06-19T09:41:42.211Z,75.13
2018-06-19T09:42:42.112Z,75.52
2018-06-19T09:43:42.165Z,75.52
2018-06-19T09:44:42.129Z,75.46
2018-06-19T09:45:42.135Z,75.13
2018-06-19T09:46:42.908Z,75.56
2018-06-19T09:47:42.170Z,75.33
2018-06-19T09:48:42.186Z,75.13
2018-06-19T09:49:42.162Z,75.27
2018-06-19T09:50:42.144Z,75.65
2018-06-19T09:51:42.130Z,75.04
2018-06-19T09:52:42.182Z,75.04
2018-06-19T09:53:42.219Z,75.43
2018-06-19T09:54:42.166Z,75.27
2018-06-19T09:55:42.145Z,75.17
2018-06-19T09:56:42.159Z,75.13
2018-06-19T09:57:42.144Z,75.23
2018-06-19T09:58:42.193Z,75.33
2018-06-19T09:59:42.202Z,74.79
2018-06-19T10:00:42.185Z,74.94
2018-06-19T10:01:42.174Z,74.55
2018-06-19T10:02:42.148Z,74.85
2018-06-19T10:03:42.186Z,74.98
2018-06-19T10:04:42.196Z,74.85
2018-06-19T10:05:42.230Z,74.59
2018-06-19T10:06:42.194Z,74.65
2018-06-19T10:07:42.151Z,74.69
2018-06-19T10:08:42.155Z,74.49
2018-06-19T10:09:42.166Z,74.59
2018-06-19T10:10:42.157Z,74.49
2018-06-19T10:11:42.179Z,74.59
2018-06-19T10:12:42.190Z,74.75
2018-06-19T10:13:42.189Z,74.59
2018-06-19T10:14:42.170Z,74.69
2018-06-19T10:15:42.173Z,74.69
2018-06-19T10:16:42.258Z,74.55
2018-06-19T10:17:42.161Z,74.59
2018-06-19T10:18:42.174Z,74.46
2018-06-19T10:19:42.200Z,74.65
2018-06-19T10:20:42.181Z,74.79
2018-06-19T10:21:42.187Z,74.4
2018-06-19T10:22:42.195Z,74.49
2018-06-19T10:23:42.232Z,74.59
2018-06-19T10:24:42.182Z,74.85
2018-06-19T10:25:42.174Z,75.17
2018-06-19T10:26:42.175Z,74.79
2018-06-19T10:27:42.176Z,74.79
2018-06-19T10:28:42.358Z,74.88
2018-06-19T10:29:42.246Z,75.07
2018-06-19T10:30:42.221Z,74.69
2018-06-19T10:31:42.204Z,74.88
2018-06-19T10:32:42.210Z,74.88
2018-06-19T10:33:42.292Z,74.88
2018-06-19T10:34:42.198Z,74.69
2018-06-19T10:35:42.219Z,74.75
2018-06-19T10:36:42.182Z,74.88
2018-06-19T10:37:42.215Z,74.79
2018-06-19T10:38:42.237Z,74.69
2018-06-19T10:39:42.256Z,74.98
2018-06-19T10:40:42.237Z,74.98
2018-06-19T10:41:42.229Z,74.79
2018-06-19T10:42:42.226Z,74.69
2018-06-19T10:43:42.258Z,74.69
2018-06-19T10:44:42.275Z,75.04
2018-06-19T10:45:42.241Z,74.98
2018-06-19T10:46:42.238Z,74.59
2018-06-19T10:47:42.234Z,75.07
2018-06-19T10:48:42.933Z,74.79
2018-06-19T10:49:42.244Z,74.88
2018-06-19T10:50:42.277Z,74.69
2018-06-19T10:51:42.260Z,74.46
2018-06-19T10:52:42.294Z,74.88
2018-06-19T10:53:42.270Z,74.55
2018-06-19T10:54:42.256Z,74.98
2018-06-19T10:55:42.284Z,74.59
2018-06-19T10:56:42.242Z,74.69
2018-06-19T10:57:42.246Z,74.4
2018-06-19T10:58:42.287Z,74.98
2018-06-19T10:59:42.263Z,74.98
2018-06-19T11:00:42.308Z,74.49
2018-06-19T11:01:42.280Z,74.55
2018-06-19T11:02:42.255Z,74.49
2018-06-19T11:03:42.295Z,74.69
2018-06-19T11:04:42.291Z,74.59
2018-06-19T11:05:42.274Z,74.59
2018-06-19T11:06:42.289Z,74.79
2018-06-19T11:07:42.286Z,74.69
2018-06-19T11:08:42.322Z,74.49
2018-06-19T11:09:42.325Z,74.98
2018-06-19T11:10:42.430Z,74.49
2018-06-19T11:11:42.285Z,74.49
2018-06-19T11:12:42.275Z,74.98
2018-06-19T11:13:42.408Z,74.59
2018-06-19T11:14:42.280Z,75.07
2018-06-19T11:15:42.262Z,75.07
2018-06-19T11:16:42.296Z,75.07
2018-06-19T11:17:42.275Z,75.17
2018-06-19T11:18:42.419Z,74.49
2018-06-19T11:19:42.290Z,75.17
2018-06-19T11:20:42.297Z,75.17
2018-06-19T11:21:42.305Z,74.98
2018-06-19T11:22:42.292Z,74.49
2018-06-19T11:23:42.403Z,74.98
2018-06-19T11:24:42.332Z,75.27
2018-06-19T11:25:42.341Z,74.59
2018-06-19T11:26:42.314Z,75.27
2018-06-19T11:27:42.396Z,75.27
2018-06-19T11:28:42.921Z,75.27
2018-06-19T11:29:42.338Z,75.07
2018-06-19T11:30:42.313Z,75.27
2018-06-19T11:31:42.329Z,75.27
2018-06-19T11:32:42.347Z,75.17
2018-06-19T11:33:42.489Z,75.27
2018-06-19T11:34:42.320Z,75.17
2018-06-19T11:35:42.322Z,75.17
2018-06-19T11:36:42.339Z,75.27
2018-06-19T11:37:42.314Z,75.07
2018-06-19T11:38:42.392Z,75.07
2018-06-19T11:39:42.345Z,75.17
2018-06-19T11:40:42.359Z,75.27
2018-06-19T11:41:42.353Z,75.17
2018-06-19T11:42:42.360Z,75.07
2018-06-19T11:43:42.402Z,75.17
2018-06-19T11:44:42.387Z,75.27
2018-06-19T11:45:42.377Z,75.17
2018-06-19T11:46:42.358Z,75.27
2018-06-19T11:47:42.361Z,75.17
2018-06-19T11:48:42.398Z,75.17
2018-06-19T11:49:42.353Z,75.37
2018-06-19T11:50:42.333Z,75.17
2018-06-19T11:51:42.320Z,75.27
2018-06-19T11:52:42.347Z,75.27
2018-06-19T11:53:42.356Z,75.17
2018-06-19T11:54:42.426Z,75.27
2018-06-19T11:55:42.395Z,75.27
2018-06-19T11:56:42.327Z,75.27
2018-06-19T11:57:42.338Z,75.17
2018-06-19T11:58:42.387Z,75.17
2018-06-19T11:59:42.367Z,75.27
2018-06-19T12:00:42.400Z,75.17
2018-06-19T12:01:42.493Z,75.17
2018-06-19T12:02:42.412Z,75.27
2018-06-19T12:03:42.495Z,74.98
2018-06-19T12:04:42.355Z,75.17
2018-06-19T12:05:42.393Z,75.27
2018-06-19T12:06:42.443Z,75.27
2018-06-19T12:07:42.341Z,75.17
2018-06-19T12:08:42.381Z,75.07
2018-06-19T12:09:42.378Z,75.27
2018-06-19T12:10:42.411Z,75.27
2018-06-19T12:11:42.394Z,75.17
2018-06-19T12:12:42.375Z,75.17
2018-06-19T12:13:42.422Z,75.27
2018-06-19T12:14:42.404Z,74.69
2018-06-19T12:15:42.401Z,75.17
2018-06-19T12:16:42.400Z,75.07
2018-06-19T12:17:42.467Z,74.88
2018-06-19T12:18:42.470Z,75.27
2018-06-19T12:19:42.422Z,74.98
2018-06-19T12:20:42.427Z,75.17
2018-06-19T12:21:42.414Z,75.17
2018-06-19T12:22:42.448Z,74.98
2018-06-19T12:23:42.562Z,75.13
2018-06-19T12:24:42.438Z,75.07
2018-06-19T12:25:42.418Z,75.17
2018-06-19T12:26:42.441Z,75.17
2018-06-19T12:27:42.472Z,75.17
2018-06-19T12:28:42.486Z,74.98
2018-06-19T12:29:42.559Z,74.88
2018-06-19T12:30:42.443Z,75.46
2018-06-19T12:31:42.432Z,74.98
2018-06-19T12:32:42.453Z,75.07
2018-06-19T12:33:42.566Z,75.07
2018-06-19T12:34:42.395Z,75.17
2018-06-19T12:35:42.436Z,74.69
2018-06-19T12:36:42.439Z,75.17
2018-06-19T12:37:42.436Z,74.88
2018-06-19T12:38:42.485Z,75.17
2018-06-19T12:39:42.434Z,75.17
2018-06-19T12:40:42.458Z,75.17
2018-06-19T12:41:42.546Z,75.27
2018-06-19T12:42:42.474Z,74.69
2018-06-19T12:43:43.481Z,75.27
2018-06-19T12:44:42.456Z,75.27
2018-06-19T12:45:42.464Z,74.88
2018-06-19T12:46:42.521Z,75.27
2018-06-19T12:47:42.491Z,75.27
2018-06-19T12:48:42.537Z,74.88
2018-06-19T12:49:42.495Z,75.17
2018-06-19T12:50:42.502Z,75.27
2018-06-19T12:51:42.504Z,75.17
2018-06-19T12:52:42.464Z,75.07
2018-06-19T12:53:43.184Z,75.17
2018-06-19T12:54:42.524Z,74.79
2018-06-19T12:55:42.480Z,74.79
2018-06-19T12:56:42.485Z,75.17
2018-06-19T12:57:42.469Z,75.27
2018-06-19T12:58:42.533Z,75.17
2018-06-19T12:59:43.483Z,75.27
2018-06-19T13:00:42.494Z,75.07
2018-06-19T13:01:42.596Z,75.17
2018-06-19T13:02:42.485Z,75.17
2018-06-19T13:03:42.554Z,75.27
2018-06-19T13:04:42.508Z,75.46
2018-06-19T13:05:42.544Z,75.17
2018-06-19T13:06:43.050Z,74.98
2018-06-19T13:07:42.555Z,75.17
2018-06-19T13:08:42.681Z,75.07
2018-06-19T13:09:42.623Z,75.27
2018-06-19T13:10:42.657Z,74.88